createdAt,value
2022-10-25T00:01:31.591Z,62.48
2022-10-25T00:03:33.258Z,62.42
2022-10-25T00:05:35.542Z,62.61
2022-10-25T00:07:37.201Z,62.06
2022-10-25T00:09:39.045Z,62.00
2022-10-25T00:11:40.669Z,62.03
2022-10-25T00:13:42.270Z,62.05
2022-10-25T00:15:44.026Z,61.94
2022-10-25T00:17:45.803Z,62.61
2022-10-25T00:19:47.681Z,62.73
2022-10-25T00:21:49.362Z,62.48
2022-10-25T00:23:52.042Z,62.97
2022-10-25T00:26:01.852Z,62.71
2022-10-25T00:28:03.528Z,62.73
2022-10-25T00:30:07.058Z,63.00
2022-10-25T00:32:08.760Z,63.24
2022-10-25T00:34:10.423Z,63.84
2022-10-25T00:36:20.526Z,64.22
2022-10-25T00:38:22.190Z,64.48
2022-10-25T00:40:23.859Z,64.69
2022-10-25T00:42:27.401Z,64.55
2022-10-25T00:44:40.983Z,64.47
2022-10-25T00:46:43.885Z,64.42
2022-10-25T00:49:01.714Z,64.29
2022-10-25T00:51:04.183Z,64.44
2022-10-25T00:53:10.257Z,64.23
2022-10-25T00:55:12.833Z,64.50
2022-10-25T00:57:41.787Z,64.82
2022-10-25T00:59:44.756Z,64.88
2022-10-25T01:01:46.565Z,64.77
2022-10-25T01:03:49.336Z,64.85
2022-10-25T01:05:51.788Z,64.73
2022-10-25T01:07:53.418Z,64.91
2022-10-25T01:09:56.126Z,64.81
2022-10-25T01:11:57.932Z,64.18
2022-10-25T01:13:59.542Z,64.33
2022-10-25T01:16:15.687Z,64.25
2022-10-25T01:18:22.634Z,64.53
2022-10-25T01:20:56.582Z,64.27
2022-10-25T01:23:28.372Z,64.13
2022-10-25T01:25:54.661Z,64.53
2022-10-25T01:28:05.496Z,64.63
2022-10-25T01:30:25.392Z,64.39
2022-10-25T01:32:39.203Z,64.00
2022-10-25T01:34:53.451Z,64.42
2022-10-25T01:36:58.145Z,64.43
2022-10-25T01:39:23.654Z,64.54
2022-10-25T01:41:32.775Z,64.71
2022-10-25T01:43:42.421Z,64.91
2022-10-25T01:45:52.789Z,64.85
2022-10-25T01:48:03.760Z,64.86
2022-10-25T01:50:08.788Z,64.58
2022-10-25T01:52:10.434Z,64.17
2022-10-25T01:54:25.045Z,64.68
2022-10-25T01:56:40.755Z,64.68
2022-10-25T01:59:00.865Z,64.53
2022-10-25T02:01:25.759Z,64.84
2022-10-25T02:03:43.205Z,64.75
2022-10-25T02:05:47.798Z,64.86
2022-10-25T02:08:05.144Z,64.84
2022-10-25T02:10:17.888Z,65.24
2022-10-25T02:12:25.611Z,65.41
2022-10-25T02:14:38.732Z,65.65
2022-10-25T02:16:45.217Z,65.88
2022-10-25T02:18:49.606Z,65.22
2022-10-25T02:20:52.558Z,65.12
2022-10-25T02:22:55.051Z,65.43
2022-10-25T02:24:57.917Z,65.17
2022-10-25T02:27:00.497Z,64.95
2022-10-25T02:29:03.959Z,64.69
2022-10-25T02:31:17.729Z,64.79
2022-10-25T02:33:19.312Z,64.62
2022-10-25T02:35:21.025Z,64.83
2022-10-25T02:37:22.739Z,64.96
2022-10-25T02:39:29.179Z,64.47
2022-10-25T02:41:33.925Z,64.55
2022-10-25T02:43:35.658Z,64.90
2022-10-25T02:45:37.246Z,65.08
2022-10-25T02:47:38.915Z,65.46
2022-10-25T02:49:40.485Z,65.78
2022-10-25T02:51:42.084Z,66.30
2022-10-25T02:53:44.150Z,65.90
2022-10-25T02:55:45.841Z,66.31
2022-10-25T02:57:47.434Z,66.36
2022-10-25T02:59:49.528Z,66.03
2022-10-25T03:01:51.188Z,66.15
2022-10-25T03:03:53.021Z,65.76
2022-10-25T03:05:54.952Z,65.71
2022-10-25T03:07:56.529Z,66.16
2022-10-25T03:09:58.176Z,66.77
2022-10-25T03:11:59.840Z,66.95
2022-10-25T03:14:01.405Z,66.52
2022-10-25T03:16:03.586Z,66.57
2022-10-25T03:18:05.304Z,66.85
2022-10-25T03:20:07.668Z,68.05
2022-10-25T03:22:09.389Z,68.43
2022-10-25T03:24:11.000Z,68.89
2022-10-25T03:26:12.625Z,69.08
2022-10-25T03:28:14.468Z,69.18
2022-10-25T03:30:16.560Z,70.13
2022-10-25T03:32:18.144Z,70.09
2022-10-25T03:34:19.908Z,70.01
2022-10-25T03:36:21.529Z,69.37
2022-10-25T03:38:23.364Z,69.02
2022-10-25T03:40:25.035Z,68.42
2022-10-25T03:42:26.849Z,68.09
2022-10-25T03:44:28.508Z,67.87
2022-10-25T03:46:30.144Z,67.46
2022-10-25T03:48:31.722Z,67.22
2022-10-25T03:50:33.414Z,67.05
2022-10-25T03:52:35.525Z,66.94
2022-10-25T03:54:37.208Z,67.12
2022-10-25T03:56:38.804Z,67.08
2022-10-25T03:58:40.513Z,67.00
2022-10-25T04:00:42.251Z,66.81
2022-10-25T04:02:43.864Z,66.71
2022-10-25T04:04:45.484Z,66.85
2022-10-25T04:06:47.092Z,66.35
2022-10-25T04:08:48.722Z,66.33
2022-10-25T04:10:50.551Z,66.91
2022-10-25T04:12:53.880Z,66.84
2022-10-25T04:14:56.322Z,66.27
2022-10-25T04:16:57.972Z,66.21
2022-10-25T04:18:59.634Z,66.22
2022-10-25T04:21:01.304Z,66.25
2022-10-25T04:23:02.945Z,66.29
2022-10-25T04:25:04.933Z,66.17
2022-10-25T04:27:06.543Z,66.29
2022-10-25T04:29:08.420Z,66.12
2022-10-25T04:31:10.224Z,66.51
2022-10-25T04:33:11.825Z,66.97
2022-10-25T04:35:13.580Z,67.57
2022-10-25T04:37:15.172Z,68.78
2022-10-25T04:39:16.788Z,69.71
2022-10-25T04:41:19.265Z,69.92
2022-10-25T04:43:20.862Z,69.79
2022-10-25T04:45:22.554Z,70.25
2022-10-25T04:47:24.240Z,69.87
2022-10-25T04:49:25.846Z,69.54
2022-10-25T04:51:27.419Z,69.12
2022-10-25T04:53:29.070Z,68.86
2022-10-25T04:55:31.546Z,68.74
2022-10-25T04:57:33.220Z,68.43
2022-10-25T04:59:34.873Z,68.17
2022-10-25T05:01:36.613Z,68.20
2022-10-25T05:03:38.847Z,68.84
2022-10-25T05:05:40.597Z,69.00
2022-10-25T05:07:42.197Z,69.07
2022-10-25T05:09:46.598Z,68.67
2022-10-25T05:11:49.527Z,68.92
2022-10-25T05:13:51.143Z,68.47
2022-10-25T05:15:56.322Z,68.26
2022-10-25T05:18:01.590Z,68.26
2022-10-25T05:20:03.549Z,68.01
2022-10-25T05:22:05.163Z,67.61
2022-10-25T05:24:06.843Z,67.18
2022-10-25T05:26:11.174Z,66.73
2022-10-25T05:28:12.766Z,66.70
2022-10-25T05:30:14.364Z,66.62
2022-10-25T05:32:16.209Z,66.39
2022-10-25T05:34:17.801Z,66.65
2022-10-25T05:36:19.771Z,66.59
2022-10-25T05:38:21.417Z,66.29
2022-10-25T05:40:23.014Z,66.44
2022-10-25T05:42:24.605Z,66.70
2022-10-25T05:44:26.398Z,66.36
2022-10-25T05:46:28.055Z,66.17
2022-10-25T05:48:29.687Z,66.33
2022-10-25T05:50:31.390Z,66.09
2022-10-25T05:52:32.988Z,66.10
2022-10-25T05:54:34.584Z,65.35
2022-10-25T05:56:36.979Z,65.24
2022-10-25T05:58:38.863Z,64.80
2022-10-25T06:00:40.435Z,64.60
2022-10-25T06:02:42.018Z,64.55
2022-10-25T06:04:43.577Z,64.38
2022-10-25T06:06:47.156Z,63.83
2022-10-25T06:08:48.857Z,64.29
2022-10-25T06:10:50.476Z,63.85
2022-10-25T06:12:52.136Z,63.73
2022-10-25T06:14:53.745Z,63.67
2022-10-25T06:16:55.349Z,63.62
2022-10-25T06:18:57.203Z,63.49
2022-10-25T06:21:03.605Z,63.76
2022-10-25T06:23:08.058Z,63.40
2022-10-25T06:25:12.087Z,63.28
2022-10-25T06:27:13.641Z,63.59
2022-10-25T06:29:15.323Z,63.53
2022-10-25T06:31:18.638Z,63.40
2022-10-25T06:33:22.332Z,62.91
2022-10-25T06:35:24.958Z,62.76
2022-10-25T06:37:26.585Z,62.04
2022-10-25T06:39:28.177Z,61.62
2022-10-25T06:41:31.472Z,61.46
2022-10-25T06:43:35.031Z,61.01
2022-10-25T06:45:36.663Z,60.58
2022-10-25T06:47:38.226Z,61.12
2022-10-25T06:49:39.927Z,60.92
2022-10-25T06:51:41.483Z,61.16
2022-10-25T06:53:43.189Z,60.69
2022-10-25T06:55:47.224Z,60.83
2022-10-25T06:57:48.852Z,60.72
2022-10-25T06:59:50.661Z,60.85
2022-10-25T07:01:52.641Z,60.77
2022-10-25T07:03:55.270Z,60.72
2022-10-25T07:06:01.087Z,60.41
2022-10-25T07:08:02.934Z,60.72
2022-10-25T07:10:04.831Z,60.95
2022-10-25T07:12:12.286Z,60.74
2022-10-25T07:14:14.588Z,61.16
2022-10-25T07:16:18.230Z,61.08
2022-10-25T07:18:19.873Z,61.39
2022-10-25T07:20:21.656Z,61.75
2022-10-25T07:22:23.231Z,61.74
2022-10-25T07:24:24.792Z,61.38
2022-10-25T07:26:31.833Z,60.68
2022-10-25T07:28:33.462Z,60.07
2022-10-25T07:30:35.229Z,59.17
2022-10-25T07:32:41.452Z,58.82
2022-10-25T07:34:44.207Z,58.32
2022-10-25T07:36:45.778Z,58.03
2022-10-25T07:38:47.467Z,57.65
2022-10-25T07:40:55.340Z,57.27
2022-10-25T07:42:56.936Z,57.13
2022-10-25T07:44:58.525Z,57.35
2022-10-25T07:47:00.195Z,57.34
2022-10-25T07:49:01.792Z,56.90
2022-10-25T07:51:14.134Z,57.19
2022-10-25T07:53:15.891Z,56.54
2022-10-25T07:55:17.501Z,56.58
2022-10-25T07:57:19.101Z,56.33
2022-10-25T07:59:22.009Z,56.14
2022-10-25T08:01:25.456Z,55.79
2022-10-25T08:03:27.149Z,55.14
2022-10-25T08:05:28.948Z,54.09
2022-10-25T08:07:30.574Z,54.31
2022-10-25T08:09:38.412Z,53.80
2022-10-25T08:11:40.817Z,53.33
2022-10-25T08:13:42.450Z,54.08
2022-10-25T08:15:51.310Z,54.49
2022-10-25T08:18:03.122Z,54.68
2022-10-25T08:20:05.108Z,54.22
2022-10-25T08:22:06.736Z,54.02
2022-10-25T08:24:08.591Z,53.54
2022-10-25T08:26:10.286Z,53.24
2022-10-25T08:28:12.377Z,52.67
2022-10-25T08:30:14.046Z,52.26
2022-10-25T08:32:15.593Z,51.55
2022-10-25T08:34:17.163Z,51.77
2022-10-25T08:36:18.793Z,51.82
2022-10-25T08:38:20.401Z,52.08
2022-10-25T08:40:25.811Z,51.55
2022-10-25T08:42:55.034Z,51.19
2022-10-25T08:45:11.142Z,50.54
2022-10-25T08:47:20.700Z,50.22
2022-10-25T08:49:29.596Z,49.63
2022-10-25T08:51:37.098Z,49.74
2022-10-25T08:53:43.158Z,49.31
2022-10-25T08:58:13.585Z,48.76
2022-10-25T09:00:23.264Z,48.02
2022-10-25T09:02:45.906Z,47.26
2022-10-25T09:04:47.646Z,47.35
2022-10-25T09:07:01.234Z,46.83
2022-10-25T09:09:33.667Z,46.63
2022-10-25T09:11:45.160Z,46.32
2022-10-25T09:14:09.139Z,46.17
2022-10-25T09:16:20.687Z,46.14
2022-10-25T09:18:36.861Z,46.33
2022-10-25T09:20:46.021Z,45.53
2022-10-25T09:22:58.137Z,45.68
2022-10-25T09:25:21.127Z,46.55
2022-10-25T09:27:32.294Z,46.47
2022-10-25T09:30:15.294Z,46.95
2022-10-25T09:32:29.476Z,46.82
2022-10-25T09:34:35.620Z,46.93
2022-10-25T09:36:43.330Z,46.98
2022-10-25T09:38:52.917Z,46.90
2022-10-25T09:41:05.831Z,46.77
2022-10-25T09:43:14.606Z,46.29
2022-10-25T09:45:19.161Z,46.59
2022-10-25T09:47:48.886Z,46.37
2022-10-25T09:50:24.961Z,46.15
2022-10-25T09:52:40.868Z,45.82
2022-10-25T09:54:47.868Z,45.47
2022-10-25T09:56:49.616Z,45.15
2022-10-25T09:58:51.277Z,44.92
2022-10-25T10:00:54.845Z,44.70
2022-10-25T10:02:56.508Z,43.83
2022-10-25T10:04:58.576Z,44.17
2022-10-25T10:07:07.979Z,44.16
2022-10-25T10:09:12.510Z,43.93
2022-10-25T10:11:16.236Z,43.67
2022-10-25T10:13:17.804Z,43.88
2022-10-25T10:15:26.060Z,43.49
2022-10-25T10:17:30.115Z,43.18
2022-10-25T10:19:31.846Z,43.17
2022-10-25T10:21:34.460Z,43.17
2022-10-25T10:23:43.862Z,43.29
2022-10-25T10:25:45.647Z,42.89
2022-10-25T10:27:49.188Z,42.64
2022-10-25T10:29:53.894Z,42.59
2022-10-25T10:32:00.235Z,42.84
2022-10-25T10:34:02.139Z,42.50
2022-10-25T10:36:27.202Z,42.30
2022-10-25T10:38:29.281Z,42.77
2022-10-25T10:40:31.091Z,42.75
2022-10-25T10:42:32.713Z,42.53
2022-10-25T10:44:34.841Z,41.66
2022-10-25T10:46:36.708Z,41.50
2022-10-25T10:48:45.508Z,41.56
2022-10-25T10:50:51.320Z,41.32
2022-10-25T10:52:59.446Z,41.56
2022-10-25T10:55:02.372Z,41.43
2022-10-25T10:57:05.424Z,41.35
2022-10-25T10:59:24.869Z,41.06
2022-10-25T11:01:35.464Z,40.78
2022-10-25T11:03:53.511Z,40.79
2022-10-25T11:06:02.506Z,40.52
2022-10-25T11:08:07.039Z,39.77
2022-10-25T11:10:23.660Z,39.70
2022-10-25T11:12:25.509Z,39.75
2022-10-25T11:14:27.119Z,40.03
2022-10-25T11:16:32.432Z,39.82
2022-10-25T11:18:56.144Z,39.73
2022-10-25T11:21:26.153Z,39.03
2022-10-25T11:23:43.320Z,37.70
2022-10-25T11:25:52.416Z,37.79
2022-10-25T11:28:12.372Z,37.14
2022-10-25T11:30:19.597Z,37.52
2022-10-25T11:32:55.053Z,37.45
2022-10-25T11:35:06.545Z,37.08
2022-10-25T11:37:21.627Z,37.25
2022-10-25T11:39:38.194Z,37.12
2022-10-25T11:41:48.549Z,36.64
2022-10-25T11:43:50.098Z,37.05
2022-10-25T11:46:18.273Z,36.29
2022-10-25T11:48:25.781Z,35.98
2022-10-25T11:50:41.143Z,35.39
2022-10-25T11:52:56.863Z,35.11
2022-10-25T11:55:18.389Z,35.04
2022-10-25T11:57:37.415Z,35.14
2022-10-25T11:59:45.490Z,35.54
2022-10-25T12:01:53.453Z,35.48
2022-10-25T12:04:53.507Z,35.27
2022-10-25T12:06:58.283Z,35.71
2022-10-25T12:09:21.256Z,35.75
2022-10-25T12:11:30.063Z,35.45
2022-10-25T12:13:42.364Z,35.18
2022-10-25T12:15:47.168Z,35.37
2022-10-25T12:17:50.180Z,35.26
2022-10-25T12:19:54.812Z,35.53
2022-10-25T12:22:01.929Z,35.16
2022-10-25T12:24:05.509Z,35.03
2022-10-25T12:26:12.196Z,35.35
2022-10-25T12:28:37.649Z,35.09
2022-10-25T12:30:40.391Z,34.99
2022-10-25T12:32:44.889Z,34.70
2022-10-25T12:34:51.546Z,33.94
2022-10-25T12:36:56.401Z,33.72
2022-10-25T12:39:03.326Z,33.65
2022-10-25T12:41:09.017Z,33.95
2022-10-25T12:43:31.420Z,33.99
2022-10-25T12:45:39.038Z,33.31
2022-10-25T12:47:40.768Z,33.11
2022-10-25T12:50:23.282Z,33.40
2022-10-25T12:52:40.217Z,33.57
2022-10-25T12:55:02.943Z,33.97
2022-10-25T12:57:14.397Z,33.84
2022-10-25T12:59:42.845Z,33.31
2022-10-25T13:02:21.381Z,33.36
2022-10-25T13:04:33.718Z,33.34
2022-10-25T13:06:38.970Z,33.28
2022-10-25T13:08:41.036Z,33.34
2022-10-25T13:10:47.008Z,33.75
2022-10-25T13:13:03.833Z,33.91
2022-10-25T13:15:06.097Z,34.33
2022-10-25T13:17:16.882Z,34.22
2022-10-25T13:19:35.865Z,34.45
2022-10-25T13:21:54.646Z,34.41
2022-10-25T13:24:00.250Z,34.12
2022-10-25T13:26:06.035Z,34.20
2022-10-25T13:28:16.631Z,33.88
2022-10-25T13:32:24.714Z,33.93
2022-10-25T13:34:31.519Z,33.98
2022-10-25T13:36:56.163Z,34.08
2022-10-25T13:39:05.283Z,33.91
2022-10-25T13:41:19.739Z,34.15
2022-10-25T13:43:21.991Z,34.17
2022-10-25T13:45:33.459Z,34.14
2022-10-25T13:47:42.836Z,34.10
2022-10-25T13:49:47.576Z,33.35
2022-10-25T13:51:49.167Z,33.82
2022-10-25T13:53:54.050Z,33.69
2022-10-25T13:56:22.998Z,33.86
2022-10-25T13:58:31.959Z,33.97
2022-10-25T14:00:40.314Z,34.11
2022-10-25T14:03:09.626Z,34.00
2022-10-25T14:05:11.861Z,33.93
2022-10-25T14:07:45.704Z,33.74
2022-10-25T14:09:51.021Z,34.17
2022-10-25T14:12:01.945Z,34.26
2022-10-25T14:14:23.460Z,34.02
2022-10-25T14:16:29.443Z,34.02
2022-10-25T14:18:34.176Z,34.20
2022-10-25T14:20:36.701Z,34.50
2022-10-25T14:22:52.131Z,34.50
2022-10-25T14:24:54.654Z,34.16
2022-10-25T14:27:01.418Z,34.24
2022-10-25T14:29:14.356Z,34.65
2022-10-25T14:31:22.154Z,34.70
2022-10-25T14:33:33.823Z,34.80
2022-10-25T14:35:47.104Z,34.80
2022-10-25T14:37:48.995Z,34.89
2022-10-25T14:39:53.949Z,35.38
2022-10-25T14:42:00.846Z,36.22
2022-10-25T14:44:03.333Z,36.74
2022-10-25T14:46:14.287Z,37.23
2022-10-25T14:48:15.874Z,37.14
2022-10-25T14:50:23.308Z,36.37
2022-10-25T14:52:26.231Z,36.34
2022-10-25T14:54:34.925Z,35.57
2022-10-25T14:56:42.635Z,34.77
2022-10-25T14:58:44.267Z,35.29
2022-10-25T15:00:58.168Z,35.54
2022-10-25T15:03:01.372Z,35.49
2022-10-25T15:05:03.995Z,35.22
2022-10-25T15:07:06.395Z,35.34
2022-10-25T15:09:41.835Z,34.75
2022-10-25T15:11:39.873Z,35.36
2022-10-25T15:13:43.397Z,35.96
2022-10-25T15:15:46.736Z,36.40
2022-10-25T15:17:52.420Z,37.08
2022-10-25T15:19:59.309Z,36.68
2022-10-25T15:22:10.945Z,37.06
2022-10-25T15:24:24.109Z,37.09
2022-10-25T15:26:26.856Z,37.02
2022-10-25T15:28:48.047Z,37.13
2022-10-25T15:30:49.657Z,37.17
2022-10-25T15:32:51.250Z,37.88
2022-10-25T15:34:54.741Z,37.77
2022-10-25T15:36:56.342Z,38.62
2022-10-25T15:39:11.748Z,38.54
2022-10-25T15:41:18.014Z,38.69
2022-10-25T15:43:19.819Z,39.16
2022-10-25T15:45:21.429Z,39.19
2022-10-25T15:47:33.989Z,39.20
2022-10-25T15:49:35.626Z,38.99
2022-10-25T15:51:39.496Z,39.29
2022-10-25T15:53:41.135Z,39.38
2022-10-25T15:55:42.797Z,39.64
2022-10-25T15:57:44.982Z,39.58
2022-10-25T15:59:46.675Z,39.52
2022-10-25T16:01:50.902Z,39.85
2022-10-25T16:03:52.609Z,39.73
2022-10-25T16:05:54.237Z,40.36
2022-10-25T16:07:55.983Z,40.74
2022-10-25T16:09:57.608Z,40.71
2022-10-25T16:11:59.917Z,41.14
2022-10-25T16:14:01.873Z,41.25
2022-10-25T16:16:11.755Z,41.21
2022-10-25T16:18:18.333Z,41.39
2022-10-25T16:20:28.660Z,41.61
2022-10-25T16:22:30.302Z,41.71
2022-10-25T16:24:31.957Z,41.48
2022-10-25T16:26:36.694Z,41.28
2022-10-25T16:28:40.581Z,41.13
2022-10-25T16:30:43.937Z,40.84
2022-10-25T16:32:46.105Z,41.18
2022-10-25T16:34:47.912Z,40.98
2022-10-25T16:36:50.638Z,40.90
2022-10-25T16:38:52.249Z,40.81
2022-10-25T16:40:53.818Z,40.82
2022-10-25T16:42:55.502Z,40.53
2022-10-25T16:44:57.414Z,40.73
2022-10-25T16:47:00.230Z,40.50
2022-10-25T16:49:02.358Z,40.54
2022-10-25T16:51:04.400Z,40.37
2022-10-25T16:53:10.324Z,40.46
2022-10-25T16:55:12.095Z,40.52
2022-10-25T16:57:14.717Z,40.54
2022-10-25T16:59:16.453Z,40.43
2022-10-25T17:01:34.680Z,40.43
2022-10-25T17:03:36.725Z,40.61
2022-10-25T17:05:39.905Z,40.46
2022-10-25T17:07:45.523Z,40.39
2022-10-25T17:09:47.231Z,40.56
2022-10-25T17:11:48.796Z,40.60
2022-10-25T17:13:50.369Z,40.51
2022-10-25T17:15:52.180Z,40.42
2022-10-25T17:17:53.767Z,40.52
2022-10-25T17:19:55.404Z,40.55
2022-10-25T17:21:57.522Z,40.69
2022-10-25T17:23:59.587Z,40.51
2022-10-25T17:26:02.118Z,40.48
2022-10-25T17:28:04.186Z,40.41
2022-10-25T17:30:07.234Z,40.41
2022-10-25T17:32:08.824Z,40.45
2022-10-25T17:34:10.722Z,40.46
2022-10-25T17:36:15.206Z,40.71
2022-10-25T17:38:17.106Z,40.89
2022-10-25T17:40:18.987Z,40.73
2022-10-25T17:42:20.652Z,40.75
2022-10-25T17:44:22.228Z,40.85
2022-10-25T17:46:27.912Z,40.87
2022-10-25T17:48:29.698Z,40.85
2022-10-25T17:50:32.015Z,40.98
2022-10-25T17:52:33.838Z,40.74
2022-10-25T17:54:37.300Z,40.89
2022-10-25T17:56:38.884Z,40.67
2022-10-25T17:58:45.221Z,40.85
2022-10-25T18:00:46.851Z,40.95
2022-10-25T18:02:50.783Z,41.21
2022-10-25T18:05:08.571Z,41.44
2022-10-25T18:07:15.250Z,41.21
2022-10-25T18:09:17.013Z,41.70
2022-10-25T18:11:22.365Z,42.88
2022-10-25T18:13:25.050Z,43.15
2022-10-25T18:15:26.764Z,43.25
2022-10-25T18:17:28.347Z,43.54
2022-10-25T18:19:29.960Z,43.86
2022-10-25T18:21:32.099Z,43.88
2022-10-25T18:23:34.137Z,43.98
2022-10-25T18:25:36.437Z,44.03
2022-10-25T18:27:38.019Z,43.92
2022-10-25T18:29:40.277Z,43.94
2022-10-25T18:31:41.853Z,44.17
2022-10-25T18:33:43.599Z,44.47
2022-10-25T18:35:45.241Z,44.59
2022-10-25T18:37:48.394Z,44.76
2022-10-25T18:39:50.195Z,44.86
2022-10-25T18:41:52.593Z,44.99
2022-10-25T18:43:54.967Z,45.06
2022-10-25T18:45:59.893Z,45.11
2022-10-25T18:48:01.843Z,45.23
2022-10-25T18:50:03.723Z,45.58
2022-10-25T18:52:06.021Z,45.64
2022-10-25T18:54:11.699Z,45.79
2022-10-25T18:56:17.103Z,45.60
2022-10-25T18:58:21.481Z,45.63
2022-10-25T19:00:27.711Z,45.74
2022-10-25T19:02:31.977Z,45.86
2022-10-25T19:04:35.842Z,45.79
2022-10-25T19:06:37.435Z,45.79
2022-10-25T19:08:39.464Z,45.88
2022-10-25T19:10:42.134Z,46.27
2022-10-25T19:12:43.799Z,46.13
2022-10-25T19:14:45.436Z,46.11
2022-10-25T19:16:47.121Z,45.98
2022-10-25T19:18:48.936Z,46.03
2022-10-25T19:20:50.512Z,46.00
2022-10-25T19:22:53.458Z,45.91
2022-10-25T19:24:55.048Z,45.78
2022-10-25T19:26:57.881Z,46.10
2022-10-25T19:29:00.964Z,46.07
2022-10-25T19:31:10.365Z,46.21
2022-10-25T19:33:11.971Z,46.13
2022-10-25T19:35:13.764Z,46.36
2022-10-25T19:37:15.371Z,46.30
2022-10-25T19:39:16.954Z,46.27
2022-10-25T19:41:22.801Z,46.51
2022-10-25T19:43:24.361Z,46.34
2022-10-25T19:45:26.286Z,46.49
2022-10-25T19:47:28.154Z,46.65
2022-10-25T19:49:29.739Z,46.69
2022-10-25T19:51:31.450Z,46.68
2022-10-25T19:53:33.546Z,47.00
2022-10-25T19:55:35.617Z,47.06
2022-10-25T19:57:37.185Z,47.25
2022-10-25T19:59:38.769Z,47.32
2022-10-25T20:01:40.529Z,47.26
2022-10-25T20:03:45.109Z,47.61
2022-10-25T20:05:46.696Z,47.81
2022-10-25T20:07:48.577Z,47.87
2022-10-25T20:09:50.355Z,48.31
2022-10-25T20:11:51.911Z,48.24
2022-10-25T20:13:55.011Z,48.25
2022-10-25T20:15:56.680Z,48.27
2022-10-25T20:17:58.225Z,48.20
2022-10-25T20:19:59.892Z,48.38
2022-10-25T20:22:01.465Z,48.21
2022-10-25T20:24:08.453Z,48.25
2022-10-25T20:26:15.689Z,48.28
2022-10-25T20:28:17.322Z,48.53
2022-10-25T20:30:18.967Z,48.45
2022-10-25T20:32:21.447Z,48.33
2022-10-25T20:34:23.172Z,48.43
2022-10-25T20:36:25.452Z,48.71
2022-10-25T20:38:27.125Z,48.95
2022-10-25T20:40:28.770Z,48.92
2022-10-25T20:42:30.429Z,49.18
2022-10-25T20:44:32.265Z,49.64
2022-10-25T20:46:34.077Z,49.49
2022-10-25T20:48:35.820Z,49.48
2022-10-25T20:50:37.448Z,49.85
2022-10-25T20:52:47.663Z,50.04
2022-10-25T20:54:49.839Z,49.83
2022-10-25T20:56:51.668Z,50.20
2022-10-25T20:58:53.292Z,50.37
2022-10-25T21:00:57.540Z,50.70
2022-10-25T21:02:59.782Z,50.86
2022-10-25T21:05:01.373Z,51.39
2022-10-25T21:07:03.780Z,51.39
2022-10-25T21:09:05.413Z,51.80
2022-10-25T21:11:09.494Z,52.05
2022-10-25T21:13:11.077Z,52.63
2022-10-25T21:15:12.672Z,52.51
2022-10-25T21:17:14.537Z,52.83
2022-10-25T21:19:16.191Z,52.94
2022-10-25T21:21:19.531Z,52.99
2022-10-25T21:23:21.329Z,53.17
2022-10-25T21:25:22.968Z,53.12
2022-10-25T21:27:24.870Z,53.59
2022-10-25T21:29:26.499Z,53.99
2022-10-25T21:31:28.094Z,53.77
2022-10-25T21:33:29.957Z,53.73
2022-10-25T21:35:32.336Z,53.91
2022-10-25T21:37:33.923Z,54.00
2022-10-25T21:39:35.598Z,54.09
2022-10-25T21:41:37.196Z,54.12
2022-10-25T21:43:45.426Z,54.12
2022-10-25T21:45:47.327Z,54.40
2022-10-25T21:47:49.152Z,54.74
2022-10-25T21:49:51.089Z,54.54
2022-10-25T21:51:52.678Z,54.90
2022-10-25T21:53:55.218Z,55.04
2022-10-25T21:56:14.881Z,54.88
2022-10-25T21:58:16.459Z,55.06
2022-10-25T22:00:21.317Z,55.06
2022-10-25T22:02:23.196Z,55.20
2022-10-25T22:04:26.101Z,55.08
2022-10-25T22:06:27.851Z,55.42
2022-10-25T22:08:29.682Z,55.51
2022-10-25T22:10:31.254Z,55.30
2022-10-25T22:12:32.833Z,55.25
2022-10-25T22:14:34.514Z,55.23
2022-10-25T22:16:36.480Z,55.44
2022-10-25T22:18:38.141Z,55.65
2022-10-25T22:20:39.734Z,55.83
2022-10-25T22:22:41.568Z,55.89
2022-10-25T22:24:43.175Z,55.73
2022-10-25T22:26:45.784Z,55.83
2022-10-25T22:28:51.937Z,55.90
2022-10-25T22:31:02.007Z,55.61
2022-10-25T22:33:03.589Z,55.63
2022-10-25T22:35:05.691Z,55.54
2022-10-25T22:37:07.411Z,55.41
2022-10-25T22:39:09.305Z,55.68
2022-10-25T22:41:16.226Z,55.43
2022-10-25T22:43:17.804Z,55.64
2022-10-25T22:45:19.405Z,55.66
2022-10-25T22:47:21.044Z,55.48
2022-10-25T22:49:22.913Z,55.43
2022-10-25T22:51:26.224Z,55.51
2022-10-25T22:53:28.520Z,55.35
2022-10-25T22:55:30.176Z,55.32
2022-10-25T22:57:31.787Z,55.19
2022-10-25T22:59:33.669Z,55.09
2022-10-25T23:01:36.654Z,55.01
2022-10-25T23:03:42.865Z,55.24
2022-10-25T23:05:44.758Z,55.31
2022-10-25T23:07:46.371Z,55.24
2022-10-25T23:09:47.964Z,55.33
2022-10-25T23:11:50.146Z,55.03
2022-10-25T23:13:52.257Z,54.87
2022-10-25T23:15:53.907Z,54.92
2022-10-25T23:17:55.580Z,54.65
2022-10-25T23:19:57.304Z,54.68
2022-10-25T23:21:58.914Z,54.82
2022-10-25T23:24:01.029Z,54.83
2022-10-25T23:26:02.769Z,54.69
2022-10-25T23:28:04.539Z,54.74
2022-10-25T23:30:09.850Z,54.74
2022-10-25T23:32:14.066Z,54.43
2022-10-25T23:34:15.704Z,54.65
2022-10-25T23:36:19.677Z,55.03
2022-10-25T23:38:21.338Z,54.97
2022-10-25T23:40:23.010Z,55.10
2022-10-25T23:42:24.688Z,54.97
2022-10-25T23:44:26.315Z,55.37
2022-10-25T23:46:28.167Z,56.06
2022-10-25T23:48:30.937Z,56.16
2022-10-25T23:50:32.548Z,56.28
2022-10-25T23:52:34.348Z,56.42
2022-10-25T23:54:35.971Z,56.76
2022-10-25T23:56:37.644Z,56.63
2022-10-25T23:58:39.512Z,56.69
